KISQ/ISQ METAR and TAF weather

Enter ICAO airport designator
Station Type Date Time Source
KISQ METAR 2021/04/13 22:15 UTC NOAA

KISQ 132215Z AUTO 21006KT 10SM OVC041 07/00 A2999 RMK AO2 T00670002


Station Type Date Time Source
KISQ Decoded METAR 2021/04/13 22:15 UTC NOAA

Manistique, Schoolcraft County Airport, MI, United States (KISQ) 45-58-29N 086-10-19W
Apr 13, 2021 - 06:15 PM EDT / 2021.04.13 2215 UTC
Wind: from the SSW (210 degrees) at 7 MPH (6 KT):0
Visibility: 10 mile(s):0
Sky conditions: overcast
Temperature: 44.1 F (6.7 C)
Dew Point: 32.4 F (0.2 C)
Relative Humidity: 63%
Pressure (altimeter): 29.99 in. Hg (1015 hPa)
ob: KISQ 132215Z AUTO 21006KT 10SM OVC041 07/00 A2999 RMK AO2 T00670002
cycle: 22

Station Type Date Time Source
KISQ TAF UTC NOAA

Error!

Example: see airport list